createdAt,value
2018-09-15T00:01:52.105Z,100713.09
2018-09-15T00:04:22.267Z,100719.39
2018-09-15T00:06:51.575Z,100713.89
2018-09-15T00:09:20.780Z,100723.45
2018-09-15T00:11:50.001Z,100716.77
2018-09-15T00:14:19.199Z,100716.95
2018-09-15T00:16:48.444Z,100720.19
2018-09-15T00:19:17.673Z,100715.25
2018-09-15T00:21:46.941Z,100713.59
2018-09-15T00:24:16.175Z,100715.94
2018-09-15T00:26:45.570Z,100721.94
2018-09-15T00:29:15.376Z,100727.98
2018-09-15T00:31:44.589Z,100729.47
2018-09-15T00:34:14.359Z,100722.05
2018-09-15T00:36:43.615Z,100723.09
2018-09-15T00:39:13.210Z,100728.73
2018-09-15T00:41:42.500Z,100730.75
2018-09-15T00:44:11.703Z,100730.94
2018-09-15T00:46:41.003Z,100731.68
2018-09-15T00:49:10.214Z,100728.67
2018-09-15T00:51:39.524Z,100730.98
2018-09-15T00:54:08.674Z,100735.29
2018-09-15T00:56:37.898Z,100734.23
2018-09-15T00:59:07.179Z,100729.70
2018-09-15T01:01:36.383Z,100731.36
2018-09-15T01:04:08.627Z,100734.45
2018-09-15T01:06:37.823Z,100728.96
2018-09-15T01:09:08.478Z,100729.59
2018-09-15T01:11:37.794Z,100734.83
2018-09-15T01:14:07.250Z,100733.19
2018-09-15T01:16:36.395Z,100729.26
2018-09-15T01:19:05.693Z,100731.67
2018-09-15T01:21:34.891Z,100734.16
2018-09-15T01:24:04.107Z,100733.94
2018-09-15T01:26:33.322Z,100737.89
2018-09-15T01:29:02.558Z,100739.03
2018-09-15T01:31:31.967Z,100744.00
2018-09-15T01:34:01.195Z,100735.98
2018-09-15T01:36:30.375Z,100741.50
2018-09-15T01:38:59.572Z,100740.16
2018-09-15T01:41:28.958Z,100741.28
2018-09-15T01:43:58.193Z,100751.50
2018-09-15T01:46:27.420Z,100748.58
2018-09-15T01:48:56.686Z,100752.03
2018-09-15T01:51:25.867Z,100749.95
2018-09-15T01:53:55.062Z,100757.27
2018-09-15T01:56:24.414Z,100754.66
2018-09-15T01:58:53.684Z,100751.87
2018-09-15T02:01:22.913Z,100752.79
2018-09-15T02:03:52.134Z,100763.11
2018-09-15T02:06:21.389Z,100765.91
2018-09-15T02:08:50.597Z,100769.36
2018-09-15T02:11:19.824Z,100767.48
2018-09-15T02:13:49.068Z,100770.19
2018-09-15T02:16:18.278Z,100770.49
2018-09-15T02:18:47.498Z,100771.72
2018-09-15T02:21:16.957Z,100769.88
2018-09-15T02:23:46.151Z,100772.67
2018-09-15T02:26:15.386Z,100776.42
2018-09-15T02:28:44.590Z,100777.98
2018-09-15T02:31:13.960Z,100776.94
2018-09-15T02:33:43.171Z,100779.87
2018-09-15T02:36:13.121Z,100786.96
2018-09-15T02:38:42.269Z,100786.02
2018-09-15T02:41:11.490Z,100792.77
2018-09-15T02:43:40.684Z,100785.69
2018-09-15T02:46:09.922Z,100785.05
2018-09-15T02:48:39.124Z,100783.68
2018-09-15T02:51:08.357Z,100789.61
2018-09-15T02:53:37.553Z,100783.89
2018-09-15T02:56:06.818Z,100787.53
2018-09-15T02:58:36.048Z,100784.83
2018-09-15T03:01:05.306Z,100786.08
2018-09-15T03:03:34.515Z,100799.03
2018-09-15T03:06:10.114Z,100799.44
2018-09-15T03:08:39.328Z,100802.06
2018-09-15T03:11:08.625Z,100805.70
2018-09-15T03:13:37.954Z,100806.86
2018-09-15T03:16:07.225Z,100806.16
2018-09-15T03:18:36.463Z,100805.43
2018-09-15T03:21:06.065Z,100808.96
2018-09-15T03:23:35.292Z,100811.34
2018-09-15T03:26:04.564Z,100808.75
2018-09-15T03:28:33.756Z,100814.27
2018-09-15T03:31:03.002Z,100810.20
2018-09-15T03:33:32.174Z,100816.86
2018-09-15T03:36:01.389Z,100817.45
2018-09-15T03:38:30.563Z,100820.55
2018-09-15T03:40:59.875Z,100818.86
2018-09-15T03:43:29.042Z,100822.49
2018-09-15T03:45:58.311Z,100814.67
2018-09-15T03:48:27.540Z,100824.22
2018-09-15T03:50:56.823Z,100826.61
2018-09-15T03:53:31.509Z,100835.81
2018-09-15T03:56:00.766Z,100832.25
2018-09-15T03:58:30.021Z,100827.02
2018-09-15T04:00:59.239Z,100825.61
2018-09-15T04:03:28.456Z,100826.50
2018-09-15T04:05:57.663Z,100824.00
2018-09-15T04:08:26.914Z,100822.03
2018-09-15T04:10:56.208Z,100819.97
2018-09-15T04:13:25.449Z,100824.73
2018-09-15T04:15:54.704Z,100820.47
2018-09-15T04:18:23.971Z,100823.02
2018-09-15T04:20:53.246Z,100827.44
2018-09-15T04:23:22.490Z,100827.98
2018-09-15T04:25:51.718Z,100830.03
2018-09-15T04:28:21.000Z,100832.90
2018-09-15T04:30:50.270Z,100838.95
2018-09-15T04:33:19.535Z,100848.30
2018-09-15T04:35:48.763Z,100850.91
2018-09-15T04:38:17.987Z,100853.20
2018-09-15T04:40:47.213Z,100862.14
2018-09-15T04:43:16.424Z,100863.09
2018-09-15T04:45:45.635Z,100864.84
2018-09-15T04:48:14.863Z,100864.97
2018-09-15T04:50:44.084Z,100865.09
2018-09-15T04:53:13.289Z,100862.84
2018-09-15T04:55:42.500Z,100873.64
2018-09-15T04:58:11.735Z,100879.16
2018-09-15T05:00:41.083Z,100885.77
2018-09-15T05:03:10.335Z,100886.02
2018-09-15T05:05:39.611Z,100886.48
2018-09-15T05:08:09.136Z,100890.72
2018-09-15T05:10:38.355Z,100888.14
2018-09-15T05:13:07.735Z,100887.74
2018-09-15T05:15:37.214Z,100886.34
2018-09-15T05:18:06.552Z,100886.18
2018-09-15T05:20:35.745Z,100885.81
2018-09-15T05:23:05.035Z,100895.41
2018-09-15T05:25:34.324Z,100900.55
2018-09-15T05:28:03.559Z,100898.27
2018-09-15T05:30:32.775Z,100902.91
2018-09-15T05:33:02.041Z,100905.63
2018-09-15T05:35:31.276Z,100909.42
2018-09-15T05:38:00.478Z,100915.25
2018-09-15T05:40:29.754Z,100914.23
2018-09-15T05:42:58.996Z,100909.30
2018-09-15T05:45:29.731Z,100920.30
2018-09-15T05:47:58.957Z,100923.04
2018-09-15T05:50:28.198Z,100931.40
2018-09-15T05:52:57.464Z,100929.94
2018-09-15T05:55:26.783Z,100933.95
2018-09-15T05:57:56.012Z,100935.44
2018-09-15T06:00:25.301Z,100942.55
2018-09-15T06:02:54.490Z,100945.03
2018-09-15T06:05:23.754Z,100944.94
2018-09-15T06:07:52.947Z,100939.66
2018-09-15T06:10:22.433Z,100947.22
2018-09-15T06:12:51.680Z,100940.41
2018-09-15T06:15:20.983Z,100939.36
2018-09-15T06:17:50.183Z,100941.25
2018-09-15T06:20:19.542Z,100941.09
2018-09-15T06:22:48.715Z,100935.42
2018-09-15T06:25:18.301Z,100935.13
2018-09-15T06:27:47.800Z,100931.89
2018-09-15T06:30:17.276Z,100941.24
2018-09-15T06:32:46.508Z,100938.92
2018-09-15T06:35:16.182Z,100947.25
2018-09-15T06:37:45.559Z,100961.68
2018-09-15T06:40:14.907Z,100952.44
2018-09-15T06:42:44.074Z,100958.81
2018-09-15T06:45:13.336Z,100964.22
2018-09-15T06:47:42.519Z,100958.63
2018-09-15T06:50:12.936Z,100968.31
2018-09-15T06:52:42.119Z,100968.62
2018-09-15T06:55:12.140Z,100969.61
2018-09-15T06:57:41.364Z,100966.24
2018-09-15T07:00:11.870Z,100964.98
2018-09-15T07:02:41.075Z,100958.89
2018-09-15T07:05:11.860Z,100962.23
2018-09-15T07:07:41.087Z,100968.03
2018-09-15T07:10:11.340Z,100971.78
2018-09-15T07:12:40.580Z,100963.35
2018-09-15T07:15:10.869Z,100973.46
2018-09-15T07:17:40.082Z,100977.31
2018-09-15T07:20:10.673Z,100965.53
2018-09-15T07:22:39.835Z,100964.02
2018-09-15T07:25:10.063Z,100971.47
2018-09-15T07:27:39.245Z,100969.63
2018-09-15T07:30:09.561Z,100961.80
2018-09-15T07:32:38.824Z,100972.93
2018-09-15T07:35:09.030Z,100978.11
2018-09-15T07:37:39.046Z,100989.33
2018-09-15T07:40:09.604Z,100986.52
2018-09-15T07:42:38.851Z,100985.83
2018-09-15T07:45:09.400Z,100989.86
2018-09-15T07:47:38.587Z,100996.94
2018-09-15T07:50:08.089Z,100997.38
2018-09-15T07:52:37.265Z,101000.80
2018-09-15T07:55:06.508Z,101003.63
2018-09-15T07:57:35.819Z,101008.17
2018-09-15T08:00:05.024Z,101018.53
2018-09-15T08:02:34.260Z,101007.45
2018-09-15T08:05:03.547Z,101007.83
2018-09-15T08:07:32.812Z,101007.00
2018-09-15T08:10:02.040Z,101013.06
2018-09-15T08:12:31.241Z,101000.93
2018-09-15T08:15:00.456Z,101000.16
2018-09-15T08:17:29.720Z,100999.00
2018-09-15T08:19:58.948Z,100994.25
2018-09-15T08:22:28.264Z,100997.75
2018-09-15T08:24:57.478Z,101001.43
2018-09-15T08:27:26.725Z,101002.56
2018-09-15T08:29:55.975Z,101003.28
2018-09-15T08:32:25.207Z,101001.66
2018-09-15T08:34:54.448Z,101011.87
2018-09-15T08:37:23.754Z,101013.84
2018-09-15T08:39:53.033Z,101016.69
2018-09-15T08:42:22.293Z,101020.59
2018-09-15T08:44:51.778Z,101025.86
2018-09-15T08:47:21.021Z,101015.42
2018-09-15T08:49:50.241Z,101015.46
2018-09-15T08:52:19.467Z,101018.65
2018-09-15T08:54:48.687Z,101021.34
2018-09-15T08:57:17.910Z,101018.41
2018-09-15T08:59:47.406Z,101022.34
2018-09-15T09:02:16.619Z,101012.94
2018-09-15T09:04:45.858Z,101012.72
2018-09-15T09:07:15.085Z,101017.52
2018-09-15T09:09:44.265Z,101017.70
2018-09-15T09:12:13.440Z,101022.34
2018-09-15T09:14:42.703Z,101013.19
2018-09-15T09:17:11.954Z,101016.61
2018-09-15T09:19:41.140Z,101022.58
2018-09-15T09:22:11.425Z,101029.23
2018-09-15T09:24:40.618Z,101029.72
2018-09-15T09:27:10.232Z,101039.66
2018-09-15T09:29:39.480Z,101035.79
2018-09-15T09:32:09.328Z,101036.23
2018-09-15T09:34:38.539Z,101039.00
2018-09-15T09:37:08.291Z,101030.44
2018-09-15T09:39:37.512Z,101033.73
2018-09-15T09:42:07.331Z,101022.12
2018-09-15T09:44:36.536Z,101017.17
2018-09-15T09:47:05.762Z,101025.02
2018-09-15T09:49:34.979Z,101022.25
2018-09-15T09:52:04.223Z,101022.70
2018-09-15T09:54:33.437Z,101028.41
2018-09-15T09:57:02.724Z,101024.20
2018-09-15T09:59:31.946Z,101030.45
2018-09-15T10:02:34.219Z,101022.15
2018-09-15T10:05:04.652Z,101017.95
2018-09-15T10:07:35.167Z,101023.82
2018-09-15T10:10:06.121Z,101019.02
2018-09-15T10:12:36.662Z,101018.53
2018-09-15T10:15:06.788Z,101017.56
2018-09-15T10:17:37.160Z,101020.13
2018-09-15T10:20:06.445Z,101021.58
2018-09-15T10:22:35.674Z,101011.99
2018-09-15T10:25:04.936Z,101006.46
2018-09-15T10:27:34.126Z,101014.50
2018-09-15T10:30:03.518Z,101011.53
2018-09-15T10:32:32.719Z,101013.27
2018-09-15T10:35:02.097Z,101009.81
2018-09-15T10:37:31.313Z,101010.53
2018-09-15T10:40:00.571Z,101006.67
2018-09-15T10:42:29.851Z,101013.47
2018-09-15T10:44:59.723Z,101012.94
2018-09-15T10:47:28.978Z,101006.26
2018-09-15T10:49:58.155Z,101008.36
2018-09-15T10:52:27.431Z,101005.09
2018-09-15T10:54:56.818Z,101006.68
2018-09-15T10:57:26.049Z,100998.28
2018-09-15T10:59:55.238Z,100996.31
2018-09-15T11:02:24.469Z,100999.45
2018-09-15T11:04:53.732Z,101008.69
2018-09-15T11:07:22.954Z,101000.47
2018-09-15T11:09:52.169Z,100995.64
2018-09-15T11:12:21.379Z,100991.28
2018-09-15T11:14:50.545Z,100988.80
2018-09-15T11:17:19.776Z,100981.66
2018-09-15T11:19:49.047Z,100980.55
2018-09-15T11:22:18.260Z,100993.28
2018-09-15T11:24:47.492Z,100991.92
2018-09-15T11:27:16.692Z,100996.77
2018-09-15T11:29:45.869Z,101001.08
2018-09-15T11:32:15.277Z,100993.20
2018-09-15T11:34:44.443Z,100993.44
2018-09-15T11:37:13.711Z,100974.97
2018-09-15T11:39:42.975Z,100975.60
2018-09-15T11:42:12.242Z,100973.28
2018-09-15T11:44:41.446Z,100959.73
2018-09-15T11:47:10.691Z,100969.23
2018-09-15T11:49:39.904Z,100972.45
2018-09-15T11:52:09.619Z,100975.69
2018-09-15T11:54:38.894Z,100979.20
2018-09-15T11:57:08.399Z,100978.20
2018-09-15T11:59:37.591Z,100977.33
2018-09-15T12:02:07.194Z,100977.47
2018-09-15T12:04:36.436Z,100976.14
2018-09-15T12:07:05.764Z,100974.88
2018-09-15T12:09:34.905Z,100983.36
2018-09-15T12:12:04.136Z,100983.36
2018-09-15T12:14:33.328Z,100993.77
2018-09-15T12:17:02.551Z,100996.49
2018-09-15T12:19:31.750Z,100999.78
2018-09-15T12:22:01.015Z,100997.13
2018-09-15T12:24:30.210Z,100999.48
2018-09-15T12:26:59.471Z,100997.00
2018-09-15T12:29:28.709Z,100998.56
2018-09-15T12:31:57.919Z,100992.63
2018-09-15T12:34:27.261Z,100988.97
2018-09-15T12:36:57.508Z,101000.05
2018-09-15T12:39:28.377Z,100999.54
2018-09-15T12:41:57.739Z,101003.70
2018-09-15T12:44:27.243Z,101005.00
2018-09-15T12:46:56.506Z,100990.70
2018-09-15T12:49:25.736Z,100995.76
2018-09-15T12:51:55.027Z,100988.89
2018-09-15T12:54:24.137Z,100988.45
2018-09-15T12:56:53.342Z,100983.70
2018-09-15T12:59:22.603Z,100988.44
2018-09-15T13:01:51.941Z,100982.02
2018-09-15T13:04:21.198Z,100982.35
2018-09-15T13:06:50.540Z,100979.66
2018-09-15T13:09:19.838Z,100981.80
2018-09-15T13:11:49.135Z,100980.98
2018-09-15T13:14:18.395Z,100984.38
2018-09-15T13:16:47.627Z,100981.89
2018-09-15T13:19:16.933Z,100981.61
2018-09-15T13:21:46.162Z,100986.55
2018-09-15T13:24:15.394Z,100981.36
2018-09-15T13:26:44.612Z,100981.89
2018-09-15T13:29:13.817Z,100972.87
2018-09-15T13:31:43.090Z,100969.98
2018-09-15T13:34:12.459Z,100972.45
2018-09-15T13:36:41.694Z,100970.95
2018-09-15T13:39:12.167Z,100978.09
2018-09-15T13:41:41.412Z,100972.59
2018-09-15T13:44:10.914Z,100982.16
2018-09-15T13:46:40.143Z,100970.20
2018-09-15T13:49:09.857Z,100970.27
2018-09-15T13:51:39.122Z,100964.73
2018-09-15T13:54:09.189Z,100962.05
2018-09-15T13:56:38.437Z,100952.36
2018-09-15T13:59:08.093Z,100952.17
2018-09-15T14:01:37.311Z,100950.90
2018-09-15T14:04:06.663Z,100955.19
2018-09-15T14:06:35.868Z,100959.50
2018-09-15T14:09:07.755Z,100957.13
2018-09-15T14:11:37.128Z,100952.01
2018-09-15T14:14:06.689Z,100952.61
2018-09-15T14:16:36.096Z,100957.19
2018-09-15T14:19:05.295Z,100954.00
2018-09-15T14:21:34.636Z,100962.97
2018-09-15T14:24:03.834Z,100962.60
2018-09-15T14:26:33.149Z,100965.83
2018-09-15T14:29:02.331Z,100963.91
2018-09-15T14:31:31.588Z,100967.14
2018-09-15T14:34:00.814Z,100968.72
2018-09-15T14:36:30.086Z,100970.41
2018-09-15T14:38:59.354Z,100968.03
2018-09-15T14:41:28.687Z,100965.00
2018-09-15T14:43:57.861Z,100961.09
2018-09-15T14:46:27.116Z,100958.92
2018-09-15T14:48:56.339Z,100957.65
2018-09-15T14:51:25.658Z,100951.50
2018-09-15T14:53:54.872Z,100953.78
2018-09-15T14:56:24.264Z,100959.04
2018-09-15T14:58:53.381Z,100954.08
2018-09-15T15:01:22.689Z,100961.89
2018-09-15T15:03:51.872Z,100957.76
2018-09-15T15:06:21.273Z,100955.16
2018-09-15T15:08:50.499Z,100958.60
2018-09-15T15:11:19.917Z,100955.87
2018-09-15T15:13:49.606Z,100954.31
2018-09-15T15:16:18.941Z,100950.13
2018-09-15T15:18:48.272Z,100947.20
2018-09-15T15:21:17.548Z,100957.20
2018-09-15T15:23:46.774Z,100957.81
2018-09-15T15:26:16.090Z,100963.97
2018-09-15T15:28:45.259Z,100966.98
2018-09-15T15:31:14.596Z,100968.23
2018-09-15T15:33:43.767Z,100971.25
2018-09-15T15:36:13.044Z,100973.45
2018-09-15T15:38:42.290Z,100965.35
2018-09-15T15:41:11.638Z,100962.16
2018-09-15T15:43:40.916Z,100965.72
2018-09-15T15:46:10.272Z,100963.31
2018-09-15T15:48:39.501Z,100957.85
2018-09-15T15:51:09.253Z,100956.78
2018-09-15T15:53:38.450Z,100959.65
2018-09-15T15:56:07.929Z,100958.72
2018-09-15T15:58:37.230Z,100959.08
2018-09-15T16:01:06.988Z,100957.45
2018-09-15T16:03:36.190Z,100961.84
2018-09-15T16:06:05.440Z,100962.06
2018-09-15T16:08:34.656Z,100966.08
2018-09-15T16:11:03.996Z,100971.94
2018-09-15T16:13:33.218Z,100967.16
2018-09-15T16:16:02.468Z,100970.98
2018-09-15T16:18:31.728Z,100976.59
2018-09-15T16:21:01.943Z,100972.94
2018-09-15T16:23:31.186Z,100975.89
2018-09-15T16:26:00.496Z,100977.86
2018-09-15T16:28:29.824Z,100983.53
2018-09-15T16:30:59.075Z,100974.64
2018-09-15T16:33:28.523Z,100976.72
2018-09-15T16:35:57.759Z,100974.48
2018-09-15T16:38:27.043Z,100979.69
2018-09-15T16:40:56.342Z,100974.51
2018-09-15T16:43:25.591Z,100975.38
2018-09-15T16:45:54.885Z,100973.80
2018-09-15T16:48:24.126Z,100976.55
2018-09-15T16:50:53.382Z,100976.37
2018-09-15T16:53:22.626Z,100975.88
2018-09-15T16:55:51.917Z,100972.72
2018-09-15T16:58:21.137Z,100975.34
2018-09-15T17:00:50.554Z,100976.70
2018-09-15T17:03:22.777Z,100977.13
2018-09-15T17:05:52.759Z,100977.83
2018-09-15T17:08:22.171Z,100978.55
2018-09-15T17:10:51.412Z,100985.88
2018-09-15T17:13:21.117Z,100985.74
2018-09-15T17:15:50.464Z,100988.11
2018-09-15T17:18:19.705Z,100986.99
2018-09-15T17:20:48.993Z,100985.08
2018-09-15T17:23:18.943Z,100985.14
2018-09-15T17:25:48.173Z,100990.27
2018-09-15T17:28:17.445Z,100995.17
2018-09-15T17:30:46.682Z,100992.52
2018-09-15T17:33:15.906Z,100992.42
2018-09-15T17:35:45.211Z,101005.00
2018-09-15T17:38:14.500Z,101007.51
2018-09-15T17:40:43.750Z,101002.75
2018-09-15T17:43:13.001Z,100999.79
2018-09-15T17:45:42.277Z,101008.37
2018-09-15T17:48:11.468Z,101006.66
2018-09-15T17:50:41.615Z,101010.62
2018-09-15T17:53:11.058Z,101014.44
2018-09-15T17:55:40.323Z,101016.22
2018-09-15T17:58:09.796Z,101024.14
2018-09-15T18:00:39.204Z,101021.08
2018-09-15T18:03:08.939Z,101025.59
2018-09-15T18:05:38.276Z,101026.28
2018-09-15T18:08:07.600Z,101035.03
2018-09-15T18:10:37.003Z,101037.15
2018-09-15T18:13:06.278Z,101035.72
2018-09-15T18:15:35.529Z,101039.20
2018-09-15T18:18:05.739Z,101038.13
2018-09-15T18:20:35.016Z,101035.33
2018-09-15T18:23:04.236Z,101039.56
2018-09-15T18:25:33.512Z,101038.33
2018-09-15T18:28:02.915Z,101044.44
2018-09-15T18:30:32.225Z,101053.20
2018-09-15T18:33:01.484Z,101053.13
2018-09-15T18:35:30.761Z,101041.40
2018-09-15T18:38:00.036Z,101052.44
2018-09-15T18:40:29.337Z,101054.73
2018-09-15T18:42:58.577Z,101058.50
2018-09-15T18:45:27.810Z,101061.58
2018-09-15T18:47:57.032Z,101067.78
2018-09-15T18:50:26.331Z,101065.52
2018-09-15T18:52:55.548Z,101068.24
2018-09-15T18:55:24.835Z,101073.11
2018-09-15T18:57:54.078Z,101075.23
2018-09-15T19:00:23.473Z,101081.57
2018-09-15T19:02:52.568Z,101076.08
2018-09-15T19:05:22.077Z,101080.19
2018-09-15T19:07:51.264Z,101083.61
2018-09-15T19:10:20.679Z,101077.49
2018-09-15T19:12:49.996Z,101085.11
2018-09-15T19:15:19.634Z,101091.27
2018-09-15T19:17:48.907Z,101082.53
2018-09-15T19:20:18.569Z,101084.11
2018-09-15T19:22:47.796Z,101086.59
2018-09-15T19:25:18.108Z,101090.35
2018-09-15T19:27:47.414Z,101090.14
2018-09-15T19:30:18.614Z,101088.30
2018-09-15T19:32:48.031Z,101091.53
2018-09-15T19:35:18.477Z,101087.16
2018-09-15T19:37:47.854Z,101088.64
2018-09-15T19:40:18.019Z,101084.17
2018-09-15T19:42:47.263Z,101086.15
2018-09-15T19:45:17.846Z,101093.34
2018-09-15T19:47:47.112Z,101093.93
2018-09-15T19:50:17.867Z,101088.84
2018-09-15T19:52:48.069Z,101095.92
2018-09-15T19:55:17.633Z,101098.54
2018-09-15T19:57:46.867Z,101094.78
2018-09-15T20:00:17.347Z,101092.38
2018-09-15T20:02:46.657Z,101097.18
2018-09-15T20:05:16.917Z,101102.19
2018-09-15T20:07:46.170Z,101105.20
2018-09-15T20:10:16.618Z,101099.28
2018-09-15T20:12:45.834Z,101098.84
2018-09-15T20:15:21.748Z,101097.59
2018-09-15T20:17:50.995Z,101100.39
2018-09-15T20:20:19.316Z,101098.94
2018-09-15T20:22:48.995Z,101106.02
2018-09-15T20:25:18.227Z,101103.83
2018-09-15T20:27:47.502Z,101104.99
2018-09-15T20:30:17.228Z,101109.15
2018-09-15T20:32:47.408Z,101111.56
2018-09-15T20:35:18.229Z,101112.28
2018-09-15T20:37:47.500Z,101118.72
2018-09-15T20:40:17.501Z,101120.92
2018-09-15T20:42:46.756Z,101109.86
2018-09-15T20:45:17.263Z,101121.84
2018-09-15T20:47:46.512Z,101125.89
2018-09-15T20:50:18.132Z,101127.34
2018-09-15T20:52:47.361Z,101123.70
2018-09-15T20:55:18.199Z,101124.41
2018-09-15T20:57:47.455Z,101128.18
2018-09-15T21:00:17.801Z,101125.69
2018-09-15T21:02:47.064Z,101133.67
2018-09-15T21:05:18.057Z,101133.86
2018-09-15T21:07:47.283Z,101128.89
2018-09-15T21:10:17.615Z,101132.02
2018-09-15T21:12:46.824Z,101139.13
2018-09-15T21:15:16.859Z,101137.47
2018-09-15T21:17:46.075Z,101145.86
2018-09-15T21:20:16.779Z,101141.08
2018-09-15T21:22:45.994Z,101142.53
2018-09-15T21:25:15.931Z,101140.86
2018-09-15T21:27:45.128Z,101143.84
2018-09-15T21:30:15.872Z,101146.62
2018-09-15T21:32:45.083Z,101149.42
2018-09-15T21:35:15.636Z,101145.27
2018-09-15T21:37:44.889Z,101143.45
2018-09-15T21:40:15.899Z,101143.97
2018-09-15T21:42:45.140Z,101140.39
2018-09-15T21:45:15.437Z,101141.22
2018-09-15T21:47:44.652Z,101139.34
2018-09-15T21:50:14.991Z,101145.02
2018-09-15T21:52:44.224Z,101139.77
2018-09-15T21:55:15.423Z,101140.08
2018-09-15T21:57:44.624Z,101143.09
2018-09-15T22:00:15.676Z,101141.63
2018-09-15T22:02:44.933Z,101142.58
2018-09-15T22:05:16.309Z,101141.84
2018-09-15T22:07:45.539Z,101150.01
2018-09-15T22:10:16.675Z,101144.43
2018-09-15T22:12:45.895Z,101144.12
2018-09-15T22:15:24.972Z,101146.52
2018-09-15T22:17:55.157Z,101146.61
2018-09-15T22:20:24.487Z,101150.20
2018-09-15T22:22:53.726Z,101148.16
2018-09-15T22:25:22.972Z,101151.22
2018-09-15T22:27:52.200Z,101157.02
2018-09-15T22:30:21.462Z,101153.44
2018-09-15T22:32:50.663Z,101158.61
2018-09-15T22:35:19.928Z,101159.44
2018-09-15T22:37:49.158Z,101158.14
2018-09-15T22:40:18.600Z,101151.48
2018-09-15T22:42:47.846Z,101155.23
2018-09-15T22:45:18.724Z,101158.84
2018-09-15T22:47:48.827Z,101158.78
2018-09-15T22:50:18.358Z,101161.50
2018-09-15T22:52:47.567Z,101163.45
2018-09-15T22:55:19.161Z,101161.91
2018-09-15T22:57:48.468Z,101163.88
2018-09-15T23:00:18.303Z,101147.38
2018-09-15T23:02:47.504Z,101152.27
2018-09-15T23:05:17.700Z,101149.53
2018-09-15T23:07:46.921Z,101153.94
2018-09-15T23:10:18.036Z,101151.39
2018-09-15T23:12:47.267Z,101150.09
2018-09-15T23:15:16.842Z,101154.25
2018-09-15T23:17:46.186Z,101153.42
2018-09-15T23:20:16.440Z,101152.90
2018-09-15T23:22:45.626Z,101155.27
2018-09-15T23:25:15.718Z,101157.09
2018-09-15T23:27:44.964Z,101153.17
2018-09-15T23:30:15.082Z,101155.16
2018-09-15T23:32:44.332Z,101155.94
2018-09-15T23:35:15.061Z,101159.50
2018-09-15T23:37:44.268Z,101154.63
2018-09-15T23:40:14.714Z,101158.42
2018-09-15T23:43:09.924Z,101155.51
2018-09-15T23:45:39.299Z,101152.31
2018-09-15T23:48:08.531Z,101154.52
2018-09-15T23:50:37.760Z,101145.13
2018-09-15T23:53:06.994Z,101147.27
2018-09-15T23:55:36.221Z,101145.77
2018-09-15T23:58:05.728Z,101139.86
